Time;durP1;ratioP1;P1;durP2;ratioP2;P2;SDS_P1;SDS_P2;PMS_P1;PMS_P2;Temp;Humidity;BMP_temperature;BMP_pressure;BME280_temperature;BME280_humidity;BME280_pressure;Samples;Min_cycle;Max_cycle;Signal;HPM_P1;HPM_P2
2022/09/11 00:00:07;;;;;;;;;;;;;;;11.89;55.95;101662.84;5040624;28;19917;-70
2022/09/11 00:02:38;;;;;;;;;;;;;;;11.87;56.11;101665.50;5025725;28;19921;-71
2022/09/11 00:05:03;;;;;;;;;;;;;;;11.81;56.27;101663.06;5031122;28;19926;-70
2022/09/11 00:07:29;;;;;;;;;;;;;;;11.74;56.12;101673.78;5020073;28;19964;-71
2022/09/11 00:09:55;;;;;;;;;;;;;;;11.74;56.21;101669.38;5010453;28;19921;-73
2022/09/11 00:12:21;;;;;;;;;;;;;;;11.75;56.12;101665.84;5009038;28;20301;-75
2022/09/11 00:14:46;;;;;;;;;;;;;;;11.70;56.05;101661.69;5009888;28;19952;-73
2022/09/11 00:17:11;;;;;;;;;;;;;;;11.69;56.16;101666.06;5010019;28;19920;-74
2022/09/11 00:19:39;;;;;;;;;;;;;;;11.66;55.92;101663.53;5015546;28;20370;-75
2022/09/11 00:22:04;;;;;;;;;;;;;;;11.64;55.96;101663.59;5012654;28;19925;-74
2022/09/11 00:24:30;;;;;;;;;;;;;;;11.64;56.08;101662.72;5007241;28;19951;-73
2022/09/11 00:26:55;;;;;;;;;;;;;;;11.45;56.23;101665.91;5018455;28;19921;-74
2022/09/11 00:29:21;;;;;;;;;;;;;;;11.35;56.34;101666.25;5007904;28;19961;-76
2022/09/11 00:31:47;;;;;;;;;;;;;;;11.42;56.37;101667.78;5007531;28;19967;-72
2022/09/11 00:34:13;;;;;;;;;;;;;;;11.48;56.34;101658.88;5010698;28;20373;-72
2022/09/11 00:36:40;;;;;;;;;;;;;;;11.47;56.16;101665.88;4991677;28;19959;-73
2022/09/11 00:39:06;;;;;;;;;;;;;;;11.46;56.13;101674.63;5010490;28;19920;-73
2022/09/11 00:41:35;;;;;;;;;;;;;;;11.38;56.19;101672.25;4992732;28;19997;-72
2022/09/11 00:44:06;;;;;;;;;;;;;;;11.43;56.35;101679.97;5008951;28;19922;-72
2022/09/11 00:46:34;;;;;;;;;;;;;;;11.40;56.19;101673.06;5007288;28;19924;-72
2022/09/11 00:49:01;;;;;;;;;;;;;;;11.31;56.20;101669.84;5037206;28;19959;-72
2022/09/11 00:51:32;;;;;;;;;;;;;;;11.38;56.09;101672.25;5035569;28;19931;-72
2022/09/11 00:53:58;;;;;;;;;;;;;;;11.44;56.06;101672.06;5037065;28;19916;-71
2022/09/11 00:56:26;;;;;;;;;;;;;;;11.38;56.11;101661.78;5025572;28;19913;-71
2022/09/11 00:58:53;;;;;;;;;;;;;;;11.26;56.29;101672.63;5035411;28;19925;-71
2022/09/11 01:01:19;;;;;;;;;;;;;;;11.17;56.27;101662.44;5047628;28;19921;-71
2022/09/11 01:03:44;;;;;;;;;;;;;;;11.15;56.58;101665.13;5045791;28;20329;-73
2022/09/11 01:06:10;;;;;;;;;;;;;;;11.13;56.49;101660.81;5039710;28;19928;-69
2022/09/11 01:08:35;;;;;;;;;;;;;;;11.11;56.64;101657.41;5043617;28;19921;-70
2022/09/11 01:11:12;;;;;;;;;;;;;;;11.11;56.92;101657.41;5035734;28;20008;-71
2022/09/11 01:13:40;;;;;;;;;;;;;;;11.11;56.75;101657.41;5030990;28;20468;-71
2022/09/11 01:16:18;;;;;;;;;;;;;;;11.15;56.67;101648.53;5035057;28;19988;-72
2022/09/11 01:18:48;;;;;;;;;;;;;;;11.20;56.67;101655.34;5031742;28;20301;-70
2022/09/11 01:21:13;;;;;;;;;;;;;;;11.28;56.43;101652.50;5063057;28;19951;-71
2022/09/11 01:23:39;;;;;;;;;;;;;;;11.32;56.52;101656.72;5014632;28;20433;-71
2022/09/11 01:26:21;;;;;;;;;;;;;;;11.35;56.42;101669.75;5018820;28;19919;-71
2022/09/11 01:28:56;;;;;;;;;;;;;;;11.32;56.50;101669.81;5026391;28;19936;-71
2022/09/11 01:31:24;;;;;;;;;;;;;;;11.25;56.32;101669.16;5026669;28;19920;-70
2022/09/11 01:33:55;;;;;;;;;;;;;;;11.24;56.56;101674.41;5042690;28;19921;-70
2022/09/11 01:36:23;;;;;;;;;;;;;;;11.27;56.76;101679.59;5043927;28;19943;-69
2022/09/11 01:38:51;;;;;;;;;;;;;;;11.26;56.69;101677.84;5026706;28;19924;-69
2022/09/11 01:41:26;;;;;;;;;;;;;;;11.28;56.70;101686.50;5059920;28;20027;-69
2022/09/11 01:43:57;;;;;;;;;;;;;;;11.14;56.51;101679.09;5029558;28;22070;-69
2022/09/11 01:46:25;;;;;;;;;;;;;;;11.00;56.44;101692.56;5058279;28;19968;-73
2022/09/11 01:48:59;;;;;;;;;;;;;;;10.97;56.40;101692.66;5056909;28;20602;-71
2022/09/11 01:51:27;;;;;;;;;;;;;;;11.03;56.49;101694.22;5043047;28;19913;-74
2022/09/11 01:53:53;;;;;;;;;;;;;;;10.98;56.67;101698.75;5014467;28;19917;-72
2022/09/11 01:56:24;;;;;;;;;;;;;;;10.87;56.68;101693.81;5029845;28;19916;-74
2022/09/11 01:58:54;;;;;;;;;;;;;;;10.80;56.73;101695.72;5040610;28;19945;-73
2022/09/11 02:01:22;;;;;;;;;;;;;;;10.74;56.72;101692.41;5028275;28;19928;-74
2022/09/11 02:03:54;;;;;;;;;;;;;;;10.77;56.59;101697.53;5026391;28;19921;-71
2022/09/11 02:06:23;;;;;;;;;;;;;;;10.79;56.53;101698.38;5036381;28;19970;-71
2022/09/11 02:09:18;;;;;;;;;;;;;;;10.73;56.76;101693.31;4974935;28;19921;-69
2022/09/11 02:11:45;;;;;;;;;;;;;;;10.71;56.66;101695.97;5025695;28;19963;-72
2022/09/11 02:14:15;;;;;;;;;;;;;;;10.61;56.96;101692.72;5042282;28;19991;-72
2022/09/11 02:17:04;;;;;;;;;;;;;;;10.73;56.78;101693.31;5032694;28;19924;-69
2022/09/11 02:19:30;;;;;;;;;;;;;;;10.72;56.69;101694.22;5025615;28;19986;-70
2022/09/11 02:21:57;;;;;;;;;;;;;;;10.71;56.59;101693.38;5057869;28;20221;-68
2022/09/11 02:24:23;;;;;;;;;;;;;;;10.67;56.77;101693.50;5026022;28;19966;-69
2022/09/11 02:26:57;;;;;;;;;;;;;;;10.69;56.69;101696.91;5026906;28;19921;-69
2022/09/11 02:29:23;;;;;;;;;;;;;;;10.70;56.84;101693.41;5034471;28;19923;-69
2022/09/11 02:31:51;;;;;;;;;;;;;;;10.64;56.69;101699.66;5033916;28;19913;-71
2022/09/11 02:34:19;;;;;;;;;;;;;;;10.60;56.49;101703.25;5057107;28;19917;-71
2022/09/11 02:36:53;;;;;;;;;;;;;;;10.67;56.47;101712.63;5033811;28;20305;-70
2022/09/11 02:39:28;;;;;;;;;;;;;;;10.72;56.47;101707.28;5014891;28;19963;-72
2022/09/11 02:42:12;;;;;;;;;;;;;;;10.82;56.07;101708.78;5034119;28;19921;-70
2022/09/11 02:44:44;;;;;;;;;;;;;;;10.78;56.07;101709.75;5023940;28;20413;-70
2022/09/11 02:47:15;;;;;;;;;;;;;;;10.66;55.92;101717.91;5058413;28;20333;-69
2022/09/11 02:49:50;;;;;;;;;;;;;;;10.72;55.97;101723.81;5024892;28;23611;-70
2022/09/11 02:52:20;;;;;;;;;;;;;;;10.75;56.16;101722.88;5023468;28;19990;-73
2022/09/11 02:54:52;;;;;;;;;;;;;;;10.70;55.94;101725.63;5027662;28;19924;-71
2022/09/11 02:57:27;;;;;;;;;;;;;;;10.68;55.96;101730.03;5024940;28;19921;-73
2022/09/11 03:00:00;;;;;;;;;;;;;;;10.68;55.81;101731.78;5027662;28;19917;-71
2022/09/11 03:02:27;;;;;;;;;;;;;;;10.64;55.97;101728.41;5026371;28;20397;-71
2022/09/11 03:04:53;;;;;;;;;;;;;;;10.57;56.05;101730.34;5025832;28;20343;-71
2022/09/11 03:07:18;;;;;;;;;;;;;;;10.54;55.93;101730.41;5022583;28;19966;-71
2022/09/11 03:09:44;;;;;;;;;;;;;;;10.53;56.24;101727.84;5030669;28;19921;-72
2022/09/11 03:12:16;;;;;;;;;;;;;;;10.52;56.07;101733.97;5027992;28;19921;-73
2022/09/11 03:14:44;;;;;;;;;;;;;;;10.57;56.10;101732.94;5031606;28;19917;-70
2022/09/11 03:17:10;;;;;;;;;;;;;;;10.59;56.09;101733.78;5033361;28;19982;-70
2022/09/11 03:19:35;;;;;;;;;;;;;;;10.45;56.06;101741.09;5062742;28;19920;-70
2022/09/11 03:22:01;;;;;;;;;;;;;;;10.50;56.04;101730.53;5038739;28;19924;-70
2022/09/11 03:24:27;;;;;;;;;;;;;;;10.44;56.13;101734.16;5044049;28;20361;-71
2022/09/11 03:26:52;;;;;;;;;;;;;;;10.40;56.39;101732.53;5030263;28;19953;-71
2022/09/11 03:29:18;;;;;;;;;;;;;;;10.38;56.22;101729.94;5029975;28;20207;-70
2022/09/11 03:31:43;;;;;;;;;;;;;;;10.40;56.12;101737.75;5029854;28;20358;-70
2022/09/11 03:34:10;;;;;;;;;;;;;;;10.45;56.08;101735.03;5046774;28;19912;-70
2022/09/11 03:36:36;;;;;;;;;;;;;;;10.55;55.88;101742.59;5032643;28;19913;-70
2022/09/11 03:39:01;;;;;;;;;;;;;;;10.54;56.08;101737.38;5050250;28;19909;-71
2022/09/11 03:41:28;;;;;;;;;;;;;;;10.56;56.03;101746.91;5046468;28;19995;-71
2022/09/11 03:43:54;;;;;;;;;;;;;;;10.57;55.90;101745.13;5039016;28;19972;-70
2022/09/11 03:46:19;;;;;;;;;;;;;;;10.41;55.84;101747.28;5038509;28;19943;-70
2022/09/11 03:48:45;;;;;;;;;;;;;;;10.47;55.87;101748.91;5030254;28;19920;-69
2022/09/11 03:51:11;;;;;;;;;;;;;;;10.37;55.93;101754.38;5031265;28;19924;-70
2022/09/11 03:53:37;;;;;;;;;;;;;;;10.32;56.05;101742.31;5029853;28;19972;-70
2022/09/11 03:56:04;;;;;;;;;;;;;;;10.27;56.11;101745.03;5028501;28;19928;-69
2022/09/11 03:58:35;;;;;;;;;;;;;;;10.29;56.10;101739.78;5046224;28;20011;-69
2022/09/11 04:01:06;;;;;;;;;;;;;;;10.29;56.18;101740.63;5019432;28;20016;-70
2022/09/11 04:03:32;;;;;;;;;;;;;;;10.35;56.37;101744.84;5058231;28;19925;-69
2022/09/11 04:05:58;;;;;;;;;;;;;;;10.34;56.10;101743.13;5031519;28;19920;-68
2022/09/11 04:08:24;;;;;;;;;;;;;;;10.30;56.19;101755.41;5036680;28;20397;-70
2022/09/11 04:10:55;;;;;;;;;;;;;;;10.14;56.37;101744.47;5035835;28;19920;-69
2022/09/11 04:13:25;;;;;;;;;;;;;;;10.07;56.49;101750.75;5027608;28;19920;-72
2022/09/11 04:15:51;;;;;;;;;;;;;;;10.17;56.41;101746.19;5028894;28;19916;-69
2022/09/11 04:18:17;;;;;;;;;;;;;;;10.16;56.35;101752.28;5035816;28;19924;-69
2022/09/11 04:20:42;;;;;;;;;;;;;;;10.08;56.59;101747.25;5035513;28;19924;-72
2022/09/11 04:23:08;;;;;;;;;;;;;;;10.00;56.52;101754.41;5028111;28;19974;-72
2022/09/11 04:25:33;;;;;;;;;;;;;;;9.95;56.60;101754.50;5014007;28;19948;-72
2022/09/11 04:28:01;;;;;;;;;;;;;;;10.03;56.52;101754.31;5036097;28;19925;-73
2022/09/11 04:30:26;;;;;;;;;;;;;;;10.09;56.67;101756.78;5028467;28;19931;-72
2022/09/11 04:32:52;;;;;;;;;;;;;;;10.11;56.52;101762.84;5043668;28;19929;-72
2022/09/11 04:35:18;;;;;;;;;;;;;;;10.12;56.28;101758.47;5030102;28;20503;-71
2022/09/11 04:37:50;;;;;;;;;;;;;;;10.15;56.31;101763.63;5057076;28;20328;-71
2022/09/11 04:40:15;;;;;;;;;;;;;;;10.16;56.28;101766.19;5036975;28;19962;-71
2022/09/11 04:42:42;;;;;;;;;;;;;;;10.02;56.21;101771.75;5027654;28;19948;-71
2022/09/11 04:45:08;;;;;;;;;;;;;;;9.97;56.32;101773.63;5043413;28;19963;-73
2022/09/11 04:47:34;;;;;;;;;;;;;;;10.03;56.32;101770.00;5029273;28;19917;-73
2022/09/11 04:50:01;;;;;;;;;;;;;;;10.08;56.20;101778.59;5026768;28;19917;-72
2022/09/11 04:52:26;;;;;;;;;;;;;;;10.05;56.51;101778.66;5028172;28;19921;-72
2022/09/11 04:54:52;;;;;;;;;;;;;;;10.02;56.37;101770.91;5032153;28;19927;-74
2022/09/11 04:57:18;;;;;;;;;;;;;;;10.06;56.31;101777.78;5030259;28;19921;-73
2022/09/11 04:59:43;;;;;;;;;;;;;;;10.15;56.31;101777.56;5019188;28;20136;-72
2022/09/11 05:02:11;;;;;;;;;;;;;;;10.18;56.13;101774.84;5025618;28;19978;-71
2022/09/11 05:04:40;;;;;;;;;;;;;;;10.09;56.05;101780.31;5017926;28;19952;-71
2022/09/11 05:07:06;;;;;;;;;;;;;;;10.10;56.13;101776.81;5025680;28;20076;-72
2022/09/11 05:09:31;;;;;;;;;;;;;;;10.20;56.04;101782.66;5028895;28;20002;-71
2022/09/11 05:11:57;;;;;;;;;;;;;;;10.20;55.96;101783.50;5028011;28;19946;-71
2022/09/11 05:14:27;;;;;;;;;;;;;;;10.21;56.37;101784.38;5027333;28;19952;-70
2022/09/11 05:16:54;;;;;;;;;;;;;;;10.32;56.29;101786.72;5012465;28;19924;-69
2022/09/11 05:19:22;;;;;;;;;;;;;;;10.47;56.06;101786.34;5028169;28;20343;-69
2022/09/11 05:21:47;;;;;;;;;;;;;;;10.54;55.91;101793.13;5027496;28;19928;-70
2022/09/11 05:24:13;;;;;;;;;;;;;;;10.59;55.95;101791.28;5031136;28;20355;-70
2022/09/11 05:26:39;;;;;;;;;;;;;;;10.70;55.60;101792.75;5060381;28;19913;-69
2022/09/11 05:29:07;;;;;;;;;;;;;;;10.80;55.57;101802.09;5028927;28;19916;-69
2022/09/11 05:31:37;;;;;;;;;;;;;;;10.88;55.37;101805.38;5039867;28;20280;-71
2022/09/11 05:34:03;;;;;;;;;;;;;;;11.00;55.38;101799.81;5035688;28;19920;-71
2022/09/11 05:36:35;;;;;;;;;;;;;;;11.13;55.20;101802.09;5035541;28;19923;-71
2022/09/11 05:39:02;;;;;;;;;;;;;;;11.27;54.77;101810.44;5019034;28;19920;-71
2022/09/11 05:41:28;;;;;;;;;;;;;;;11.35;54.58;101808.47;5034237;28;19921;-71
2022/09/11 05:43:53;;;;;;;;;;;;;;;11.45;54.57;101806.44;5014316;28;19927;-72
2022/09/11 05:46:20;;;;;;;;;;;;;;;11.45;54.61;101806.44;5028340;28;19913;-72
2022/09/11 05:48:49;;;;;;;;;;;;;;;11.43;54.63;101806.47;5025350;28;19928;-71
2022/09/11 05:51:17;;;;;;;;;;;;;;;11.38;54.74;101802.28;5047505;28;19916;-71
2022/09/11 05:53:44;;;;;;;;;;;;;;;11.70;54.73;101809.19;5060639;28;19943;-72
2022/09/11 05:56:12;;;;;;;;;;;;;;;12.03;54.13;101815.19;5035913;28;19913;-72
2022/09/11 05:58:38;;;;;;;;;;;;;;;12.26;53.35;101817.06;5023499;28;20301;-71
2022/09/11 06:01:07;;;;;;;;;;;;;;;12.80;52.52;101823.19;5026552;28;19920;-72
2022/09/11 06:03:34;;;;;;;;;;;;;;;13.78;51.90;101823.19;5036946;28;20006;-71
2022/09/11 06:06:01;;;;;;;;;;;;;;;14.99;50.86;101828.75;5022754;28;19917;-71
2022/09/11 06:08:27;;;;;;;;;;;;;;;16.05;48.70;101831.06;5041862;28;20396;-71
2022/09/11 06:10:52;;;;;;;;;;;;;;;16.93;45.07;101836.31;5027642;28;19917;-72
2022/09/11 06:13:17;;;;;;;;;;;;;;;18.15;41.91;101827.13;5013462;28;19917;-71
2022/09/11 06:15:46;;;;;;;;;;;;;;;19.64;40.24;101832.34;5034021;28;20121;-72
2022/09/11 06:18:13;;;;;;;;;;;;;;;20.62;37.15;101829.50;5038574;28;19921;-72
2022/09/11 06:20:39;;;;;;;;;;;;;;;21.73;34.91;101835.97;5031519;28;19921;-72
2022/09/11 06:23:09;;;;;;;;;;;;;;;23.04;32.58;101836.84;5027402;28;19940;-72
2022/09/11 06:25:35;;;;;;;;;;;;;;;23.79;30.44;101839.72;5024829;28;21253;-73
2022/09/11 06:28:01;;;;;;;;;;;;;;;24.33;29.05;101835.28;5035046;28;20384;-71
2022/09/11 06:30:26;;;;;;;;;;;;;;;25.09;27.60;101828.94;5057146;28;19971;-71
2022/09/11 06:32:55;;;;;;;;;;;;;;;25.96;26.81;101825.66;5029986;28;19925;-71
2022/09/11 06:35:22;;;;;;;;;;;;;;;26.22;26.92;101832.16;5060193;28;19917;-71
2022/09/11 06:37:47;;;;;;;;;;;;;;;27.04;25.60;101841.44;5023448;28;19921;-71
2022/09/11 06:40:13;;;;;;;;;;;;;;;27.40;25.67;101841.59;5029530;28;19972;-71
2022/09/11 06:42:38;;;;;;;;;;;;;;;27.88;24.61;101840.47;5024410;28;20366;-72
2022/09/11 06:45:04;;;;;;;;;;;;;;;28.34;24.59;101832.31;5027797;28;20010;-71
2022/09/11 06:47:30;;;;;;;;;;;;;;;28.83;22.78;101837.22;5045557;28;19952;-71
2022/09/11 06:49:55;;;;;;;;;;;;;;;29.16;23.10;101841.78;5028334;28;19988;-70
2022/09/11 06:52:36;;;;;;;;;;;;;;;29.10;22.81;101847.81;5031316;28;19917;-71
2022/09/11 06:55:21;;;;;;;;;;;;;;;29.38;22.23;101846.75;5039232;28;19917;-70
2022/09/11 06:57:54;;;;;;;;;;;;;;;29.63;23.47;101853.91;5034521;28;19956;-70
2022/09/11 07:00:24;;;;;;;;;;;;;;;29.99;23.02;101846.38;5029614;28;20332;-69
2022/09/11 07:02:51;;;;;;;;;;;;;;;30.00;23.99;101860.72;5041198;28;19920;-71
2022/09/11 07:05:18;;;;;;;;;;;;;;;29.94;22.85;101861.38;5032180;28;20390;-70
2022/09/11 07:07:49;;;;;;;;;;;;;;;29.66;24.16;101850.03;5061418;28;19944;-71
2022/09/11 07:10:15;;;;;;;;;;;;;;;29.84;24.66;101856.16;5047692;28;20271;-71
2022/09/11 07:12:41;;;;;;;;;;;;;;;30.06;23.32;101861.91;5043618;28;19986;-71
2022/09/11 07:15:07;;;;;;;;;;;;;;;30.86;23.34;101866.59;5038371;28;19956;-71
2022/09/11 07:17:32;;;;;;;;;;;;;;;30.29;23.96;101862.97;5032401;28;19920;-70
2022/09/11 07:20:01;;;;;;;;;;;;;;;30.41;22.58;101854.53;5029807;28;19940;-71
2022/09/11 07:22:27;;;;;;;;;;;;;;;30.93;21.97;101860.31;5037882;28;19920;-70
2022/09/11 07:24:53;;;;;;;;;;;;;;;29.98;24.02;101858.19;5029993;28;20285;-70
2022/09/11 07:27:19;;;;;;;;;;;;;;;30.66;22.80;101860.75;5029185;28;19916;-71
2022/09/11 07:29:46;;;;;;;;;;;;;;;29.94;23.40;101856.84;5035516;28;19916;-70
2022/09/11 07:32:13;;;;;;;;;;;;;;;30.35;22.94;101858.72;5020247;28;19920;-71
2022/09/11 07:34:39;;;;;;;;;;;;;;;29.61;24.44;101866.69;5030841;28;19916;-71
2022/09/11 07:37:07;;;;;;;;;;;;;;;29.95;24.79;101855.84;5030640;28;19963;-70
2022/09/11 07:39:37;;;;;;;;;;;;;;;31.05;22.46;101862.69;5028350;28;19978;-69
2022/09/11 07:42:07;;;;;;;;;;;;;;;28.40;25.06;101858.59;5032761;28;19925;-72
2022/09/11 07:44:33;;;;;;;;;;;;;;;26.80;27.85;101876.81;5039920;28;20385;-70
2022/09/11 07:46:59;;;;;;;;;;;;;;;28.31;26.11;101868.41;5007189;28;19919;-71
2022/09/11 07:49:26;;;;;;;;;;;;;;;29.41;24.54;101871.50;5037772;28;20000;-70
2022/09/11 07:51:53;;;;;;;;;;;;;;;29.39;24.97;101876.19;5032977;28;19943;-71
2022/09/11 07:54:27;;;;;;;;;;;;;;;27.82;26.09;101878.69;5031980;28;20212;-70
2022/09/11 07:56:53;;;;;;;;;;;;;;;28.67;25.06;101878.31;5010444;28;19927;-71
2022/09/11 07:59:19;;;;;;;;;;;;;;;28.92;24.37;101879.31;5025998;28;19913;-71
2022/09/11 08:01:49;;;;;;;;;;;;;;;28.80;24.53;101880.59;5032078;28;19950;-71
2022/09/11 08:04:15;;;;;;;;;;;;;;;28.61;25.08;101887.81;5059084;28;19916;-70
2022/09/11 08:06:41;;;;;;;;;;;;;;;29.36;23.68;101890.00;5032163;28;19917;-70
2022/09/11 08:09:14;;;;;;;;;;;;;;;28.03;25.79;101888.28;5026699;28;19920;-70
2022/09/11 08:11:44;;;;;;;;;;;;;;;25.66;27.47;101884.50;5032080;28;20016;-71
2022/09/11 08:14:12;;;;;;;;;;;;;;;26.33;26.61;101881.22;5058371;28;19984;-70
2022/09/11 08:16:39;;;;;;;;;;;;;;;27.95;25.13;101888.22;5024769;28;19939;-70
2022/09/11 08:19:05;;;;;;;;;;;;;;;28.64;24.41;101887.53;5031780;28;19917;-71
2022/09/11 08:21:30;;;;;;;;;;;;;;;29.27;24.19;101891.81;5043641;28;19917;-70
2022/09/11 08:23:57;;;;;;;;;;;;;;;29.36;22.70;101890.00;5025550;28;19920;-70
2022/09/11 08:26:27;;;;;;;;;;;;;;;29.32;23.20;101899.38;5016762;28;19921;-71
2022/09/11 08:28:53;;;;;;;;;;;;;;;28.87;22.92;101895.91;5032440;28;19917;-71
2022/09/11 08:31:22;;;;;;;;;;;;;;;29.05;23.59;101898.53;5026540;28;19917;-69
2022/09/11 08:33:48;;;;;;;;;;;;;;;25.07;27.10;101900.41;5042143;28;20407;-71
2022/09/11 08:36:14;;;;;;;;;;;;;;;21.92;32.48;101904.66;5011527;28;19991;-70
2022/09/11 08:38:42;;;;;;;;;;;;;;;21.13;34.83;101907.50;5022125;28;19921;-70
2022/09/11 08:41:26;;;;;;;;;;;;;;;19.82;36.87;101909.03;5031044;28;19921;-70
2022/09/11 08:43:53;;;;;;;;;;;;;;;21.30;34.31;101900.16;5006485;28;19932;-70
2022/09/11 08:46:22;;;;;;;;;;;;;;;23.07;31.84;101906.75;5058868;28;19916;-71
2022/09/11 08:49:03;;;;;;;;;;;;;;;23.91;30.53;101907.31;5022861;28;19920;-70
2022/09/11 08:51:30;;;;;;;;;;;;;;;23.93;29.26;101905.34;5031947;28;20153;-71
2022/09/11 08:53:57;;;;;;;;;;;;;;;24.75;28.55;101902.16;5037200;28;20539;-71
2022/09/11 08:56:28;;;;;;;;;;;;;;;25.19;27.91;101905.53;5026836;28;19925;-72
2022/09/11 08:59:03;;;;;;;;;;;;;;;24.58;27.62;101908.94;5037262;28;19920;-71
2022/09/11 09:01:35;;;;;;;;;;;;;;;23.48;29.77;101909.88;5041904;28;19920;-71
2022/09/11 09:04:20;;;;;;;;;;;;;;;23.08;29.17;101908.47;5055480;28;20448;-70
2022/09/11 09:07:04;;;;;;;;;;;;;;;23.01;29.88;101912.59;5054648;28;19927;-71
2022/09/11 09:09:54;;;;;;;;;;;;;;;22.67;30.62;101907.09;5015841;28;19917;-72
2022/09/11 09:12:20;;;;;;;;;;;;;;;22.99;31.06;101909.19;5059405;28;20037;-71
2022/09/11 09:15:05;;;;;;;;;;;;;;;23.26;30.21;101911.53;5026882;28;19943;-71
2022/09/11 09:17:37;;;;;;;;;;;;;;;23.26;30.28;101908.84;5024533;28;19919;-70
2022/09/11 09:20:15;;;;;;;;;;;;;;;23.24;29.51;101908.13;5017974;28;19911;-72
2022/09/11 09:22:51;;;;;;;;;;;;;;;23.09;30.44;101904.81;5009299;28;19923;-71
2022/09/11 09:25:21;;;;;;;;;;;;;;;23.18;30.21;101908.59;5018828;28;19916;-72
2022/09/11 09:27:59;;;;;;;;;;;;;;;23.09;30.00;101909.31;5011283;28;20483;-71
2022/09/11 09:30:27;;;;;;;;;;;;;;;23.16;31.13;101910.53;5012277;28;19908;-71
2022/09/11 09:33:08;;;;;;;;;;;;;;;23.55;30.19;101911.09;5026753;28;19913;-71
2022/09/11 09:35:38;;;;;;;;;;;;;;;24.21;29.55;101909.31;5034600;28;20278;-71
2022/09/11 09:38:10;;;;;;;;;;;;;;;24.77;28.63;101912.72;5038444;28;20002;-71
2022/09/11 09:40:36;;;;;;;;;;;;;;;24.08;28.55;101921.97;5048934;28;19948;-71
2022/09/11 09:43:05;;;;;;;;;;;;;;;23.85;29.20;101926.47;5030277;28;20130;-71
2022/09/11 09:45:40;;;;;;;;;;;;;;;23.91;28.73;101933.16;5027601;28;20173;-70
2022/09/11 09:48:08;;;;;;;;;;;;;;;24.70;28.17;101928.41;5026562;28;19925;-71
2022/09/11 09:50:37;;;;;;;;;;;;;;;24.85;28.75;101934.31;5027132;28;20409;-72
2022/09/11 09:53:21;;;;;;;;;;;;;;;23.46;28.74;101935.81;5026165;28;19928;-71
2022/09/11 09:55:47;;;;;;;;;;;;;;;22.12;30.49;101938.72;5028442;28;19913;-71
2022/09/11 09:58:13;;;;;;;;;;;;;;;21.32;32.71;101936.31;5032716;28;19946;-70
2022/09/11 10:00:40;;;;;;;;;;;;;;;22.09;31.19;101936.28;5029575;28;19920;-71
2022/09/11 10:03:18;;;;;;;;;;;;;;;22.87;31.10;101942.94;5026606;28;20106;-71
2022/09/11 10:05:43;;;;;;;;;;;;;;;23.48;30.08;101942.72;5017321;28;20271;-70
2022/09/11 10:08:26;;;;;;;;;;;;;;;23.70;28.96;101941.00;5015616;28;19923;-70
2022/09/11 10:10:56;;;;;;;;;;;;;;;24.09;29.17;101942.34;5016591;28;19913;-70
2022/09/11 10:13:27;;;;;;;;;;;;;;;24.11;28.38;101935.06;5015957;28;19921;-71
2022/09/11 10:15:54;;;;;;;;;;;;;;;24.06;28.71;101939.06;5017396;28;19946;-71
2022/09/11 10:18:32;;;;;;;;;;;;;;;24.06;28.61;101939.06;5018566;28;20404;-71
2022/09/11 10:21:12;;;;;;;;;;;;;;;23.73;29.67;101930.97;5014353;28;19920;-71
2022/09/11 10:23:55;;;;;;;;;;;;;;;24.31;28.20;101937.91;5022846;28;20010;-71
2022/09/11 10:26:28;;;;;;;;;;;;;;;23.58;28.81;101937.50;5018408;28;19908;-71
2022/09/11 10:28:57;;;;;;;;;;;;;;;22.61;29.42;101942.22;5048996;28;20090;-70
2022/09/11 10:31:23;;;;;;;;;;;;;;;22.61;30.26;101941.38;5007262;28;19913;-71
2022/09/11 10:33:59;;;;;;;;;;;;;;;23.53;29.56;101945.03;5015825;28;19923;-71
2022/09/11 10:36:27;;;;;;;;;;;;;;;23.34;30.42;101941.16;5042869;28;19990;-71
2022/09/11 10:38:53;;;;;;;;;;;;;;;23.94;30.26;101943.56;5008264;28;19974;-71
2022/09/11 10:41:21;;;;;;;;;;;;;;;24.47;28.68;101937.53;5046238;28;20031;-71
2022/09/11 10:43:46;;;;;;;;;;;;;;;23.75;28.42;101942.38;5009187;28;19913;-70
2022/09/11 10:46:36;;;;;;;;;;;;;;;22.77;29.54;101940.13;5009852;28;19963;-71
2022/09/11 10:49:01;;;;;;;;;;;;;;;22.18;31.23;101935.59;4988058;28;20001;-72
2022/09/11 10:51:28;;;;;;;;;;;;;;;22.78;30.07;101938.31;4992740;28;20025;-71
2022/09/11 10:53:57;;;;;;;;;;;;;;;22.97;28.25;101935.09;4993494;28;19984;-71
2022/09/11 10:56:23;;;;;;;;;;;;;;;23.53;28.43;101939.69;5008433;28;20326;-71
2022/09/11 10:58:52;;;;;;;;;;;;;;;24.15;27.95;101941.84;4999146;28;19921;-71
2022/09/11 11:01:17;;;;;;;;;;;;;;;24.17;28.14;101934.56;5001892;28;19928;-70
2022/09/11 11:03:43;;;;;;;;;;;;;;;24.34;28.28;101940.31;4997154;28;20310;-70
2022/09/11 11:06:20;;;;;;;;;;;;;;;24.46;26.33;101939.34;4993536;28;20022;-71
2022/09/11 11:09:04;;;;;;;;;;;;;;;24.70;26.77;101943.63;4993158;28;20271;-72
2022/09/11 11:11:40;;;;;;;;;;;;;;;24.01;27.32;101931.41;4990556;28;19913;-71
2022/09/11 11:14:25;;;;;;;;;;;;;;;24.31;28.39;101935.25;4998331;28;19979;-71
2022/09/11 11:17:03;;;;;;;;;;;;;;;24.31;28.90;101929.91;4992646;28;19913;-71
2022/09/11 11:19:37;;;;;;;;;;;;;;;23.91;28.78;101938.50;5021588;28;19913;-72
2022/09/11 11:22:06;;;;;;;;;;;;;;;24.60;27.34;101936.38;5007656;28;19935;-71
2022/09/11 11:24:41;;;;;;;;;;;;;;;24.31;28.06;101936.09;4991787;28;19979;-71
2022/09/11 11:27:19;;;;;;;;;;;;;;;23.55;29.03;101943.09;4998247;28;19972;-71
2022/09/11 11:30:06;;;;;;;;;;;;;;;22.65;30.65;101938.38;4990792;28;19909;-72
2022/09/11 11:32:32;;;;;;;;;;;;;;;22.08;30.54;101934.56;4996850;28;20382;-71
2022/09/11 11:35:16;;;;;;;;;;;;;;;21.76;32.18;101936.84;4996868;28;19917;-71
2022/09/11 11:37:44;;;;;;;;;;;;;;;22.85;30.53;101938.69;4994005;28;22378;-71
2022/09/11 11:40:39;;;;;;;;;;;;;;;23.54;29.94;101944.06;4994941;28;20330;-71
2022/09/11 11:43:11;;;;;;;;;;;;;;;23.74;29.02;101935.31;4994048;28;19924;-71
2022/09/11 11:45:44;;;;;;;;;;;;;;;23.83;29.26;101936.41;4995865;28;20086;-70
2022/09/11 11:48:22;;;;;;;;;;;;;;;24.59;27.81;101940.03;4995423;28;19918;-71
2022/09/11 11:50:57;;;;;;;;;;;;;;;24.13;28.25;101937.59;4992346;28;19967;-71
2022/09/11 11:53:35;;;;;;;;;;;;;;;23.64;28.69;101931.69;4984208;28;19920;-72
2022/09/11 11:56:03;;;;;;;;;;;;;;;23.39;29.30;101935.47;4997359;28;20436;-71
2022/09/11 11:58:29;;;;;;;;;;;;;;;23.37;29.00;101940.91;4993438;28;19929;-71
2022/09/11 12:01:00;;;;;;;;;;;;;;;23.62;29.80;101934.47;5024070;28;19925;-71
2022/09/11 12:03:33;;;;;;;;;;;;;;;23.35;28.40;101937.50;4995458;28;19967;-72
2022/09/11 12:05:58;;;;;;;;;;;;;;;23.10;28.93;101935.88;5009135;28;19905;-71
2022/09/11 12:08:24;;;;;;;;;;;;;;;23.67;27.65;101931.44;5009807;28;19917;-71
2022/09/11 12:10:58;;;;;;;;;;;;;;;23.58;28.70;101926.84;5004837;28;20372;-72
2022/09/11 12:13:34;;;;;;;;;;;;;;;23.49;28.40;101928.41;5009453;28;19982;-71
2022/09/11 12:15:59;;;;;;;;;;;;;;;24.05;28.18;101940.88;5007946;28;20559;-72
2022/09/11 12:18:25;;;;;;;;;;;;;;;23.68;26.75;101935.81;5015779;28;20011;-70
2022/09/11 12:20:50;;;;;;;;;;;;;;;23.88;27.07;101938.72;5012756;28;20282;-73
2022/09/11 12:23:30;;;;;;;;;;;;;;;24.11;27.24;101944.91;5014943;28;20805;-72
2022/09/11 12:26:07;;;;;;;;;;;;;;;23.96;28.33;101946.97;5013453;28;19913;-71
2022/09/11 12:28:34;;;;;;;;;;;;;;;24.01;30.24;101945.66;5012811;28;19920;-72
2022/09/11 12:31:03;;;;;;;;;;;;;;;24.09;28.06;101945.00;5013060;28;19916;-71
2022/09/11 12:33:47;;;;;;;;;;;;;;;24.18;26.98;101946.94;5014596;28;19924;-71
2022/09/11 12:36:32;;;;;;;;;;;;;;;23.15;28.61;101941.69;5012908;28;20343;-70
2022/09/11 12:39:23;;;;;;;;;;;;;;;22.88;29.76;101944.66;5015295;28;19913;-71
2022/09/11 12:41:49;;;;;;;;;;;;;;;23.50;27.86;101937.25;5012194;28;19921;-72
2022/09/11 12:44:49;;;;;;;;;;;;;;;24.19;27.97;101932.63;5013347;28;19920;-72
2022/09/11 12:47:19;;;;;;;;;;;;;;;23.78;28.41;101934.09;5014559;28;20446;-71